createdAt,value
2018-03-19T00:00:44.944Z,101098.98
2018-03-19T00:03:13.978Z,101118.52
2018-03-19T00:05:42.886Z,101098.83
2018-03-19T00:08:11.439Z,101115.16
2018-03-19T00:10:40.139Z,101102.55
2018-03-19T00:13:09.003Z,101095.08
2018-03-19T00:15:37.966Z,101085.51
2018-03-19T00:18:07.043Z,101090.45
2018-03-19T00:20:36.086Z,101092.52
2018-03-19T00:23:05.254Z,101088.95
2018-03-19T00:25:33.927Z,101083.77
2018-03-19T00:28:03.258Z,101081.85
2018-03-19T00:30:31.945Z,101087.08
2018-03-19T00:33:01.384Z,101087.08
2018-03-19T00:35:29.938Z,101078.75
2018-03-19T00:37:58.396Z,101079.37
2018-03-19T00:40:27.801Z,101066.95
2018-03-19T00:42:56.758Z,101064.07
2018-03-19T00:45:25.767Z,101067.05
2018-03-19T00:47:54.517Z,101071.13
2018-03-19T00:50:23.660Z,101068.80
2018-03-19T00:52:52.365Z,101075.14
2018-03-19T00:55:21.749Z,101069.53
2018-03-19T00:57:50.370Z,101065.41
2018-03-19T01:00:19.093Z,101062.44
2018-03-19T01:02:47.843Z,101061.91
2018-03-19T01:05:16.740Z,101057.34
2018-03-19T01:07:45.382Z,101058.21
2018-03-19T01:10:14.810Z,101054.06
2018-03-19T01:12:43.568Z,101051.59
2018-03-19T01:15:12.374Z,101052.90
2018-03-19T01:17:41.269Z,101052.68
2018-03-19T01:20:10.645Z,101052.80
2018-03-19T01:22:39.213Z,101056.27
2018-03-19T01:25:08.074Z,101051.84
2018-03-19T01:27:36.735Z,101047.19
2018-03-19T01:30:05.311Z,101056.28
2018-03-19T01:32:34.369Z,101045.80
2018-03-19T01:35:03.042Z,101042.53
2018-03-19T01:37:31.733Z,101039.92
2018-03-19T01:40:00.541Z,101032.56
2018-03-19T01:42:29.266Z,101040.31
2018-03-19T01:44:58.319Z,101050.00
2018-03-19T01:47:27.376Z,101038.95
2018-03-19T01:49:56.199Z,101038.45
2018-03-19T01:55:33.855Z,101034.86
2018-03-19T01:58:02.418Z,101027.37
2018-03-19T02:00:30.812Z,101033.20
2018-03-19T02:02:59.617Z,101031.83
2018-03-19T02:05:28.382Z,101029.19
2018-03-19T02:07:56.875Z,101026.80
2018-03-19T02:10:25.649Z,101021.95
2018-03-19T02:12:54.041Z,101027.23
2018-03-19T02:15:22.417Z,101025.27
2018-03-19T02:17:50.820Z,101018.72
2018-03-19T02:20:19.197Z,101026.38
2018-03-19T02:22:47.601Z,101018.42
2018-03-19T02:25:16.334Z,101013.09
2018-03-19T02:27:44.734Z,101021.98
2018-03-19T02:30:13.506Z,101019.81
2018-03-19T02:32:41.932Z,101033.95
2018-03-19T02:35:10.309Z,101021.28
2018-03-19T02:37:38.717Z,101032.56
2018-03-19T02:40:07.179Z,101031.95
2018-03-19T02:42:35.609Z,101027.77
2018-03-19T02:45:04.440Z,101027.84
2018-03-19T02:47:32.805Z,101027.61
2018-03-19T02:50:01.176Z,101026.11
2018-03-19T02:52:29.564Z,101022.92
2018-03-19T02:54:57.941Z,101020.28
2018-03-19T02:57:26.768Z,101034.80
2018-03-19T02:59:56.938Z,101030.86
2018-03-19T03:02:25.749Z,101028.41
2018-03-19T03:04:54.115Z,101030.17
2018-03-19T03:07:22.498Z,101030.74
2018-03-19T03:09:50.930Z,101025.08
2018-03-19T03:12:19.290Z,101034.83
2018-03-19T03:14:47.645Z,101030.57
2018-03-19T03:17:16.154Z,101030.18
2018-03-19T03:19:44.775Z,101035.97
2018-03-19T03:22:13.196Z,101033.19
2018-03-19T03:24:41.557Z,101030.44
2018-03-19T03:27:09.935Z,101027.03
2018-03-19T03:29:38.280Z,101035.17
2018-03-19T03:32:06.673Z,101035.66
2018-03-19T03:34:35.113Z,101028.82
2018-03-19T03:37:03.490Z,101032.67
2018-03-19T03:39:31.858Z,101045.25
2018-03-19T03:42:00.235Z,101030.44
2018-03-19T03:44:28.617Z,101031.95
2018-03-19T03:46:57.002Z,101035.80
2018-03-19T03:49:25.408Z,101037.15
2018-03-19T03:51:53.852Z,101041.56
2018-03-19T03:54:22.241Z,101036.34
2018-03-19T03:56:50.846Z,101037.05
2018-03-19T03:59:19.221Z,101026.14
2018-03-19T04:01:47.582Z,101026.63
2018-03-19T04:04:15.959Z,101039.70
2018-03-19T04:06:44.353Z,101031.80
2018-03-19T04:09:12.752Z,101033.55
2018-03-19T04:11:41.180Z,101029.84
2018-03-19T04:14:09.600Z,101032.06
2018-03-19T04:16:38.391Z,101044.02
2018-03-19T04:19:06.776Z,101031.19
2018-03-19T04:21:35.149Z,101031.42
2018-03-19T04:24:03.552Z,101033.23
2018-03-19T04:26:31.948Z,101032.84
2018-03-19T04:29:00.336Z,101028.08
2018-03-19T04:31:28.728Z,101029.78
2018-03-19T04:33:57.112Z,101029.55
2018-03-19T04:36:25.530Z,101022.78
2018-03-19T04:38:53.930Z,101024.23
2018-03-19T04:41:22.326Z,101015.88
2018-03-19T04:43:51.004Z,101020.45
2018-03-19T04:46:20.744Z,101012.78
2018-03-19T04:48:49.134Z,101015.56
2018-03-19T04:51:17.516Z,101017.78
2018-03-19T04:56:20.789Z,101012.77
2018-03-19T04:58:49.187Z,101014.09
2018-03-19T05:01:17.546Z,101006.02
2018-03-19T05:03:46.414Z,101014.09
2018-03-19T05:06:15.223Z,101027.00
2018-03-19T05:08:43.735Z,101018.75
2018-03-19T05:11:12.114Z,101013.31
2018-03-19T05:13:40.488Z,101015.03
2018-03-19T05:16:08.910Z,101026.34
2018-03-19T05:18:37.438Z,101024.09
2018-03-19T05:21:05.929Z,101027.28
2018-03-19T05:23:34.375Z,101026.81
2018-03-19T05:26:02.757Z,101027.36
2018-03-19T05:28:31.145Z,101021.77
2018-03-19T05:30:59.560Z,101023.41
2018-03-19T05:33:28.821Z,101032.91
2018-03-19T05:35:57.196Z,101037.37
2018-03-19T05:38:25.985Z,101034.62
2018-03-19T05:40:54.372Z,101035.22
2018-03-19T05:43:22.759Z,101037.43
2018-03-19T05:45:51.130Z,101032.61
2018-03-19T05:48:19.550Z,101022.25
2018-03-19T05:50:48.016Z,101023.70
2018-03-19T05:53:16.416Z,101014.45
2018-03-19T05:55:44.830Z,101017.98
2018-03-19T05:58:13.292Z,101026.69
2018-03-19T06:00:41.770Z,101019.28
2018-03-19T06:03:10.127Z,101016.93
2018-03-19T06:05:38.556Z,101015.48
2018-03-19T06:08:06.944Z,101011.98
2018-03-19T06:10:35.376Z,101004.59
2018-03-19T06:13:03.808Z,101008.77
2018-03-19T06:15:32.211Z,101005.73
2018-03-19T06:18:00.575Z,101016.21
2018-03-19T06:20:29.025Z,101015.80
2018-03-19T06:22:57.403Z,101006.94
2018-03-19T06:25:26.340Z,101011.89
2018-03-19T06:27:54.752Z,101017.98
2018-03-19T06:30:23.168Z,101018.22
2018-03-19T06:32:51.644Z,101015.56
2018-03-19T06:35:20.106Z,101022.80
2018-03-19T06:40:23.193Z,101016.78
2018-03-19T06:42:51.677Z,101023.02
2018-03-19T06:45:20.189Z,101023.05
2018-03-19T06:47:48.741Z,101031.23
2018-03-19T06:50:17.351Z,101021.80
2018-03-19T06:52:46.098Z,101022.91
2018-03-19T06:55:14.600Z,101030.16
2018-03-19T06:57:43.202Z,101017.79
2018-03-19T07:00:12.132Z,101021.09
2018-03-19T07:02:40.889Z,101018.88
2018-03-19T07:05:09.285Z,101015.84
2018-03-19T07:07:37.704Z,101017.59
2018-03-19T07:10:06.230Z,101015.23
2018-03-19T07:12:34.887Z,101009.45
2018-03-19T07:15:03.321Z,101015.02
2018-03-19T07:17:31.849Z,101022.30
2018-03-19T07:20:00.569Z,101012.23
2018-03-19T07:22:29.047Z,101021.86
2018-03-19T07:24:57.544Z,101012.34
2018-03-19T07:27:25.999Z,101010.59
2018-03-19T07:29:54.682Z,101004.05
2018-03-19T07:32:24.216Z,101003.13
2018-03-19T07:34:52.797Z,101004.77
2018-03-19T07:37:21.277Z,101011.88
2018-03-19T07:39:49.711Z,100995.64
2018-03-19T07:42:18.142Z,100999.99
2018-03-19T07:44:46.658Z,101000.52
2018-03-19T07:47:15.087Z,100992.02
2018-03-19T07:49:43.604Z,100998.73
2018-03-19T07:52:12.265Z,100999.55
2018-03-19T07:54:40.739Z,100991.18
2018-03-19T07:57:09.153Z,100993.12
2018-03-19T07:59:37.886Z,101001.18
2018-03-19T08:02:06.365Z,100989.51
2018-03-19T08:04:34.865Z,100993.34
2018-03-19T08:07:04.344Z,100990.41
2018-03-19T08:09:32.835Z,100986.79
2018-03-19T08:12:01.384Z,100989.37
2018-03-19T08:14:30.079Z,100985.48
2018-03-19T08:16:58.553Z,100976.34
2018-03-19T08:19:27.780Z,100978.38
2018-03-19T08:21:56.244Z,100988.79
2018-03-19T08:24:24.840Z,100985.25
2018-03-19T08:27:06.436Z,100978.98
2018-03-19T08:29:34.956Z,100993.06
2018-03-19T08:32:03.359Z,100981.64
2018-03-19T08:34:31.817Z,100989.58
2018-03-19T08:37:00.352Z,100993.06
2018-03-19T08:39:28.826Z,101001.19
2018-03-19T08:41:57.327Z,100981.43
2018-03-19T08:44:25.718Z,100982.44
2018-03-19T08:46:54.387Z,100990.56
2018-03-19T08:49:22.898Z,100983.44
2018-03-19T08:51:51.427Z,100989.05
2018-03-19T08:54:21.145Z,100978.59
2018-03-19T08:56:49.553Z,100968.70
2018-03-19T08:59:18.283Z,100978.58
2018-03-19T09:01:46.724Z,100969.42
2018-03-19T09:04:15.354Z,100969.84
2018-03-19T09:06:44.268Z,100988.66
2018-03-19T09:09:12.781Z,100970.22
2018-03-19T09:11:41.224Z,100964.08
2018-03-19T09:14:09.877Z,100958.00
2018-03-19T09:16:38.343Z,100971.58
2018-03-19T09:19:06.837Z,100960.99
2018-03-19T09:21:35.251Z,100953.64
2018-03-19T09:24:03.669Z,100960.62
2018-03-19T09:26:32.052Z,100954.77
2018-03-19T09:29:00.476Z,100964.58
2018-03-19T09:31:28.947Z,100955.34
2018-03-19T09:33:57.371Z,100966.35
2018-03-19T09:36:25.777Z,100961.11
2018-03-19T09:38:54.218Z,100954.03
2018-03-19T09:41:22.658Z,100962.28
2018-03-19T09:43:51.325Z,100946.41
2018-03-19T09:46:19.814Z,100966.59
2018-03-19T09:48:49.041Z,100945.39
2018-03-19T09:51:20.228Z,100946.41
2018-03-19T09:53:48.719Z,100935.06
2018-03-19T09:56:17.149Z,100952.55
2018-03-19T09:58:45.589Z,100949.22
2018-03-19T10:01:14.041Z,100947.06
2018-03-19T10:03:42.474Z,100945.75
2018-03-19T10:06:10.924Z,100940.95
2018-03-19T10:08:39.522Z,100961.91
2018-03-19T10:11:07.996Z,100938.98
2018-03-19T10:13:36.720Z,100941.57
2018-03-19T10:16:05.478Z,100939.35
2018-03-19T10:18:34.506Z,100934.98
2018-03-19T10:21:03.004Z,100935.22
2018-03-19T10:23:31.448Z,100932.47
2018-03-19T10:25:59.864Z,100922.03
2018-03-19T10:28:28.276Z,100918.77
2018-03-19T10:30:57.264Z,100917.39
2018-03-19T10:33:25.711Z,100926.95
2018-03-19T10:35:54.166Z,100922.05
2018-03-19T10:38:22.709Z,100909.67
2018-03-19T10:40:51.340Z,100914.31
2018-03-19T10:43:20.166Z,100917.20
2018-03-19T10:45:48.619Z,100916.38
2018-03-19T10:48:17.168Z,100904.55
2018-03-19T10:50:45.564Z,100900.17
2018-03-19T10:53:14.198Z,100895.77
2018-03-19T10:55:42.844Z,100899.68
2018-03-19T10:58:11.545Z,100903.36
2018-03-19T11:00:39.949Z,100896.14
2018-03-19T11:03:08.844Z,100891.00
2018-03-19T11:05:42.829Z,100900.19
2018-03-19T11:08:11.314Z,100900.13
2018-03-19T11:10:39.774Z,100886.02
2018-03-19T11:13:08.211Z,100886.28
2018-03-19T11:15:36.638Z,100879.83
2018-03-19T11:18:05.295Z,100881.77
2018-03-19T11:20:33.792Z,100881.78
2018-03-19T11:23:02.416Z,100873.95
2018-03-19T11:25:31.099Z,100869.31
2018-03-19T11:27:59.567Z,100883.14
2018-03-19T11:30:28.049Z,100874.13
2018-03-19T11:32:56.460Z,100878.94
2018-03-19T11:35:25.049Z,100863.91
2018-03-19T11:37:53.672Z,100858.78
2018-03-19T11:40:22.140Z,100861.34
2018-03-19T11:42:50.525Z,100859.48
2018-03-19T11:45:18.974Z,100846.70
2018-03-19T11:47:48.249Z,100862.88
2018-03-19T11:50:16.630Z,100856.80
2018-03-19T11:52:46.422Z,100851.69
2018-03-19T11:55:15.124Z,100856.98
2018-03-19T11:57:43.503Z,100840.87
2018-03-19T12:00:12.113Z,100842.18
2018-03-19T12:02:40.491Z,100831.95
2018-03-19T12:05:08.898Z,100841.98
2018-03-19T12:07:37.602Z,100823.30
2018-03-19T12:10:05.990Z,100825.45
2018-03-19T12:12:34.656Z,100821.41
2018-03-19T12:15:03.101Z,100818.27
2018-03-19T12:17:31.588Z,100817.25
2018-03-19T12:20:00.809Z,100813.95
2018-03-19T12:22:29.316Z,100810.47
2018-03-19T12:24:57.810Z,100804.05
2018-03-19T12:27:26.272Z,100800.61
2018-03-19T12:29:54.882Z,100795.49
2018-03-19T12:32:23.425Z,100789.33
2018-03-19T12:34:51.939Z,100786.16
2018-03-19T12:37:20.371Z,100771.64
2018-03-19T12:39:48.751Z,100782.37
2018-03-19T12:42:17.388Z,100769.59
2018-03-19T12:44:45.814Z,100760.77
2018-03-19T12:47:14.242Z,100767.61
2018-03-19T12:49:42.802Z,100761.36
2018-03-19T12:52:11.295Z,100753.30
2018-03-19T12:54:40.898Z,100751.77
2018-03-19T12:57:09.337Z,100744.28
2018-03-19T12:59:37.725Z,100744.03
2018-03-19T13:02:06.536Z,100746.07
2018-03-19T13:04:34.998Z,100750.55
2018-03-19T13:07:03.975Z,100745.00
2018-03-19T13:09:32.631Z,100736.45
2018-03-19T13:12:01.389Z,100735.63
2018-03-19T13:14:29.843Z,100737.63
2018-03-19T13:16:58.318Z,100740.59
2018-03-19T13:19:27.185Z,100735.48
2018-03-19T13:21:56.128Z,100747.73
2018-03-19T13:24:24.936Z,100736.13
2018-03-19T13:26:53.658Z,100723.75
2018-03-19T13:29:22.098Z,100715.74
2018-03-19T13:31:50.578Z,100729.00
2018-03-19T13:34:19.304Z,100732.73
2018-03-19T13:36:47.996Z,100735.27
2018-03-19T13:39:16.381Z,100720.38
2018-03-19T13:41:44.833Z,100719.09
2018-03-19T13:44:13.211Z,100716.27
2018-03-19T13:46:41.620Z,100708.50
2018-03-19T13:49:10.345Z,100713.86
2018-03-19T13:51:39.004Z,100710.60
2018-03-19T13:54:07.415Z,100717.77
2018-03-19T13:56:36.059Z,100712.56
2018-03-19T13:59:04.477Z,100712.34
2018-03-19T14:01:32.964Z,100705.20
2018-03-19T14:04:01.340Z,100705.46
2018-03-19T14:06:30.063Z,100695.61
2018-03-19T14:08:58.749Z,100695.52
2018-03-19T14:11:27.143Z,100687.78
2018-03-19T14:13:55.653Z,100696.91
2018-03-19T14:16:24.086Z,100696.44
2018-03-19T14:18:52.485Z,100693.39
2018-03-19T14:21:20.967Z,100702.00
2018-03-19T14:23:49.340Z,100700.09
2018-03-19T14:26:17.742Z,100694.40
2018-03-19T14:28:46.129Z,100682.36
2018-03-19T14:31:14.956Z,100691.10
2018-03-19T14:33:43.536Z,100685.98
2018-03-19T14:36:11.997Z,100687.27
2018-03-19T14:38:40.537Z,100687.84
2018-03-19T14:41:08.988Z,100675.80
2018-03-19T14:43:37.373Z,100670.10
2018-03-19T14:46:06.180Z,100666.02
2018-03-19T14:48:34.584Z,100659.10
2018-03-19T14:51:03.438Z,100656.67
2018-03-19T14:53:32.050Z,100669.00
2018-03-19T14:56:00.452Z,100665.11
2018-03-19T14:58:29.484Z,100657.80
2018-03-19T15:00:57.989Z,100667.28
2018-03-19T15:03:26.681Z,100661.40
2018-03-19T15:05:55.104Z,100663.34
2018-03-19T15:08:23.621Z,100654.22
2018-03-19T15:10:52.234Z,100659.42
2018-03-19T15:13:20.901Z,100659.23
2018-03-19T15:15:49.267Z,100667.56
2018-03-19T15:18:17.651Z,100654.39
2018-03-19T15:20:46.148Z,100648.95
2018-03-19T15:23:14.520Z,100651.59
2018-03-19T15:25:46.666Z,100643.95
2018-03-19T15:28:15.090Z,100642.97
2018-03-19T15:30:43.525Z,100640.05
2018-03-19T15:33:11.905Z,100643.42
2018-03-19T15:35:40.323Z,100633.80
2018-03-19T15:38:08.774Z,100630.53
2018-03-19T15:40:37.240Z,100636.16
2018-03-19T15:43:05.692Z,100628.88
2018-03-19T15:45:34.105Z,100632.23
2018-03-19T15:48:02.513Z,100633.98
2018-03-19T15:50:31.008Z,100643.23
2018-03-19T15:52:59.428Z,100629.38
2018-03-19T15:55:28.040Z,100630.45
2018-03-19T15:57:56.470Z,100622.65
2018-03-19T16:00:24.882Z,100628.83
2018-03-19T16:02:53.635Z,100630.02
2018-03-19T16:05:22.152Z,100628.58
2018-03-19T16:07:50.604Z,100614.67
2018-03-19T16:10:19.368Z,100624.41
2018-03-19T16:12:47.807Z,100616.74
2018-03-19T16:15:16.327Z,100623.06
2018-03-19T16:17:44.849Z,100620.80
2018-03-19T16:20:13.433Z,100620.38
2018-03-19T16:22:41.870Z,100621.06
2018-03-19T16:25:10.281Z,100619.94
2018-03-19T16:27:39.232Z,100614.78
2018-03-19T16:30:07.869Z,100620.47
2018-03-19T16:32:36.339Z,100616.52
2018-03-19T16:35:04.720Z,100624.00
2018-03-19T16:37:33.292Z,100625.80
2018-03-19T16:40:01.822Z,100628.89
2018-03-19T16:42:30.340Z,100621.90
2018-03-19T16:44:58.987Z,100619.72
2018-03-19T16:47:27.588Z,100615.27
2018-03-19T16:49:55.954Z,100622.59
2018-03-19T16:52:24.456Z,100629.73
2018-03-19T16:54:52.974Z,100625.44
2018-03-19T16:57:21.443Z,100628.71
2018-03-19T16:59:49.812Z,100629.29
2018-03-19T17:02:18.286Z,100631.20
2018-03-19T17:04:46.679Z,100639.79
2018-03-19T17:07:15.161Z,100628.54
2018-03-19T17:09:43.612Z,100623.87
2018-03-19T17:12:11.983Z,100630.48
2018-03-19T17:14:40.415Z,100628.69
2018-03-19T17:17:08.923Z,100631.25
2018-03-19T17:19:37.404Z,100633.87
2018-03-19T17:22:05.811Z,100628.52
2018-03-19T17:24:34.324Z,100626.61
2018-03-19T17:27:02.699Z,100625.38
2018-03-19T17:29:31.305Z,100630.90
2018-03-19T17:31:59.984Z,100628.98
2018-03-19T17:34:28.343Z,100630.20
2018-03-19T17:36:56.740Z,100636.32
2018-03-19T17:39:25.176Z,100634.92
2018-03-19T17:41:53.648Z,100640.45
2018-03-19T17:44:22.164Z,100644.33
2018-03-19T17:46:50.628Z,100648.60
2018-03-19T17:49:18.993Z,100643.47
2018-03-19T17:51:47.458Z,100650.63
2018-03-19T17:54:15.900Z,100653.78
2018-03-19T17:56:44.743Z,100654.83
2018-03-19T17:59:13.157Z,100658.11
2018-03-19T18:01:41.805Z,100654.70
2018-03-19T18:04:10.235Z,100660.78
2018-03-19T18:06:38.678Z,100656.43
2018-03-19T18:09:07.077Z,100666.25
2018-03-19T18:11:35.581Z,100666.67
2018-03-19T18:14:03.977Z,100656.43
2018-03-19T18:16:32.369Z,100667.91
2018-03-19T18:19:00.875Z,100663.45
2018-03-19T18:21:29.280Z,100669.23
2018-03-19T18:23:57.733Z,100674.98
2018-03-19T18:26:26.124Z,100665.19
2018-03-19T18:28:54.534Z,100662.98
2018-03-19T18:31:23.105Z,100670.19
2018-03-19T18:33:51.835Z,100679.73
2018-03-19T18:36:20.218Z,100671.17
2018-03-19T18:38:48.738Z,100672.34
2018-03-19T18:41:17.271Z,100673.69
2018-03-19T18:43:45.747Z,100675.40
2018-03-19T18:46:14.160Z,100669.80
2018-03-19T18:48:42.750Z,100664.66
2018-03-19T18:51:11.112Z,100674.91
2018-03-19T18:53:39.688Z,100669.50
2018-03-19T18:56:08.070Z,100665.44
2018-03-19T18:58:36.705Z,100668.95
2018-03-19T19:01:05.177Z,100669.48
2018-03-19T19:03:33.620Z,100667.70
2018-03-19T19:06:01.991Z,100672.53
2018-03-19T19:08:30.425Z,100672.72
2018-03-19T19:10:59.063Z,100676.45
2018-03-19T19:13:27.468Z,100669.42
2018-03-19T19:15:55.934Z,100672.34
2018-03-19T19:18:24.326Z,100669.18
2018-03-19T19:20:53.240Z,100670.86
2018-03-19T19:23:21.662Z,100672.75
2018-03-19T19:25:50.143Z,100676.84
2018-03-19T19:28:18.579Z,100678.93
2018-03-19T19:30:47.318Z,100671.81
2018-03-19T19:33:15.680Z,100674.42
2018-03-19T19:35:44.040Z,100666.95
2018-03-19T19:38:12.657Z,100669.96
2018-03-19T19:40:41.392Z,100674.16
2018-03-19T19:43:10.066Z,100671.00
2018-03-19T19:45:38.461Z,100672.72
2018-03-19T19:48:06.883Z,100674.70
2018-03-19T19:50:35.388Z,100681.10
2018-03-19T19:53:03.872Z,100678.65
2018-03-19T19:55:32.368Z,100674.61
2018-03-19T19:58:01.032Z,100667.92
2018-03-19T20:00:29.531Z,100668.99
2018-03-19T20:02:57.948Z,100665.67
2018-03-19T20:05:26.318Z,100664.66
2018-03-19T20:07:54.715Z,100662.98
2018-03-19T20:10:23.705Z,100660.39
2018-03-19T20:12:52.415Z,100664.70
2018-03-19T20:15:21.293Z,100657.83
2018-03-19T20:17:49.863Z,100657.37
2018-03-19T20:20:18.331Z,100657.77
2018-03-19T20:22:46.756Z,100655.48
2018-03-19T20:25:15.386Z,100654.68
2018-03-19T20:27:43.759Z,100656.91
2018-03-19T20:30:12.147Z,100656.78
2018-03-19T20:32:40.567Z,100655.39
2018-03-19T20:35:09.136Z,100648.72
2018-03-19T20:37:37.615Z,100650.89
2018-03-19T20:40:06.063Z,100647.42
2018-03-19T20:42:34.905Z,100650.45
2018-03-19T20:45:03.668Z,100642.70
2018-03-19T20:47:32.042Z,100645.59
2018-03-19T20:50:00.864Z,100649.02
2018-03-19T20:52:29.313Z,100643.22
2018-03-19T20:54:57.836Z,100643.02
2018-03-19T20:57:26.328Z,100647.45
2018-03-19T20:59:54.946Z,100632.42
2018-03-19T21:02:23.337Z,100634.77
2018-03-19T21:04:51.768Z,100630.78
2018-03-19T21:07:20.142Z,100626.87
2018-03-19T21:09:48.542Z,100628.92
2018-03-19T21:12:16.925Z,100624.45
2018-03-19T21:14:45.469Z,100617.10
2018-03-19T21:17:14.056Z,100610.89
2018-03-19T21:19:42.464Z,100614.49
2018-03-19T21:22:11.073Z,100611.16
2018-03-19T21:24:39.497Z,100612.14
2018-03-19T21:27:07.920Z,100605.02
2018-03-19T21:29:36.683Z,100608.45
2018-03-19T21:32:05.159Z,100604.64
2018-03-19T21:34:33.593Z,100602.09
2018-03-19T21:37:01.957Z,100607.62
2018-03-19T21:39:30.374Z,100609.28
2018-03-19T21:41:58.952Z,100601.47
2018-03-19T21:44:27.426Z,100596.92
2018-03-19T21:46:56.124Z,100599.87
2018-03-19T21:49:24.735Z,100602.84
2018-03-19T21:51:53.189Z,100600.91
2018-03-19T21:54:21.807Z,100597.27
2018-03-19T21:56:50.626Z,100595.16
2018-03-19T21:59:19.028Z,100596.61
2018-03-19T22:01:47.578Z,100593.70
2018-03-19T22:04:16.064Z,100592.30
2018-03-19T22:06:44.717Z,100598.76
2018-03-19T22:09:13.351Z,100605.16
2018-03-19T22:11:41.815Z,100593.95
2018-03-19T22:14:10.268Z,100592.29
2018-03-19T22:16:38.726Z,100594.13
2018-03-19T22:19:07.148Z,100593.53
2018-03-19T22:21:35.726Z,100589.70
2018-03-19T22:24:04.378Z,100581.81
2018-03-19T22:26:33.106Z,100576.95
2018-03-19T22:29:01.579Z,100581.87
2018-03-19T22:31:30.188Z,100580.88
2018-03-19T22:33:58.576Z,100575.52
2018-03-19T22:36:27.244Z,100576.77
2018-03-19T22:38:55.910Z,100575.73
2018-03-19T22:41:24.393Z,100572.67
2018-03-19T22:43:53.067Z,100565.16
2018-03-19T22:46:21.523Z,100560.78
2018-03-19T22:48:50.270Z,100557.03
2018-03-19T22:51:18.872Z,100554.45
2018-03-19T22:53:47.335Z,100554.22
2018-03-19T22:56:16.015Z,100546.66
2018-03-19T22:58:44.680Z,100542.11
2018-03-19T23:01:13.268Z,100544.95
2018-03-19T23:03:41.691Z,100544.91
2018-03-19T23:06:10.180Z,100541.72
2018-03-19T23:08:38.694Z,100544.59
2018-03-19T23:11:07.090Z,100543.45
2018-03-19T23:13:35.849Z,100544.11
2018-03-19T23:16:04.251Z,100541.05
2018-03-19T23:18:32.681Z,100539.32
2018-03-19T23:21:01.252Z,100534.48
2018-03-19T23:23:29.872Z,100531.11
2018-03-19T23:25:58.384Z,100531.63
2018-03-19T23:28:26.851Z,100529.83
2018-03-19T23:30:55.277Z,100526.17
2018-03-19T23:33:23.663Z,100528.58
2018-03-19T23:35:52.208Z,100524.29
2018-03-19T23:38:20.754Z,100523.80
2018-03-19T23:40:49.160Z,100516.61
2018-03-19T23:43:17.566Z,100515.65
2018-03-19T23:45:46.011Z,100514.02
2018-03-19T23:48:14.447Z,100510.22
2018-03-19T23:50:42.921Z,100510.09
2018-03-19T23:53:11.388Z,100503.89
2018-03-19T23:55:40.728Z,100497.19
2018-03-19T23:58:09.584Z,100496.88
